Time;durP1;ratioP1;P1;durP2;ratioP2;P2;SDS_P1;SDS_P2;PMS_P1;PMS_P2;Temp;Humidity;BMP_temperature;BMP_pressure;BME280_temperature;BME280_humidity;BME280_pressure;Samples;Min_cycle;Max_cycle;Signal;HPM_P1;HPM_P2
2023/05/17 00:00:57;;;;;;;12.45;10.20;;;11.30;99.90;;;;;;5004924;28;20120;-77
2023/05/17 00:03:24;;;;;;;12.73;11.15;;;11.20;99.90;;;;;;5003311;28;20046;-65
2023/05/17 00:05:52;;;;;;;12.20;11.05;;;11.20;99.90;;;;;;5003549;28;20112;-63
2023/05/17 00:08:19;;;;;;;13.02;11.70;;;11.20;99.90;;;;;;5001470;28;20058;-63
2023/05/17 00:10:48;;;;;;;17.50;11.40;;;11.10;99.90;;;;;;5006279;28;20455;-66
2023/05/17 00:13:15;;;;;;;14.93;13.23;;;11.10;99.90;;;;;;5003996;28;20574;-61
2023/05/17 00:15:42;;;;;;;12.05;10.95;;;11.10;99.90;;;;;;5003950;28;20950;-72
2023/05/17 00:18:09;;;;;;;17.88;11.52;;;11.10;99.90;;;;;;5006010;28;20112;-61
2023/05/17 00:20:36;;;;;;;16.23;12.35;;;11.10;99.90;;;;;;4999309;28;20082;-64
2023/05/17 00:23:03;;;;;;;18.02;11.85;;;11.10;99.90;;;;;;5001906;28;20127;-65
2023/05/17 00:25:30;;;;;;;18.38;10.30;;;11.00;99.90;;;;;;5001044;28;20041;-65
2023/05/17 00:27:57;;;;;;;20.45;10.90;;;10.90;99.90;;;;;;4999297;28;20121;-63
2023/05/17 00:30:24;;;;;;;19.70;9.90;;;10.80;99.90;;;;;;4986645;28;20054;-67
2023/05/17 00:32:51;;;;;;;26.02;11.00;;;10.80;99.90;;;;;;5001210;28;20042;-64
2023/05/17 00:35:18;;;;;;;19.17;10.70;;;10.80;99.90;;;;;;4983589;28;20045;-67
2023/05/17 00:37:46;;;;;;;14.20;8.77;;;10.70;99.90;;;;;;4983192;28;20045;-63
2023/05/17 00:40:17;;;;;;;18.27;9.43;;;10.70;99.90;;;;;;4999673;28;20050;-63
2023/05/17 00:42:44;;;;;;;13.15;8.30;;;10.60;99.90;;;;;;4999717;28;20049;-65
2023/05/17 00:45:11;;;;;;;17.55;9.45;;;10.60;99.90;;;;;;4977619;28;20082;-74
2023/05/17 00:47:38;;;;;;;12.52;9.02;;;10.60;99.90;;;;;;4980781;28;20045;-60
2023/05/17 00:50:05;;;;;;;19.17;7.60;;;10.60;99.90;;;;;;5002799;28;20062;-65
2023/05/17 00:52:33;;;;;;;12.95;7.07;;;10.50;99.90;;;;;;4982974;28;20046;-76
2023/05/17 00:55:00;;;;;;;16.52;8.85;;;10.50;99.90;;;;;;5003547;28;20062;-74
2023/05/17 00:57:28;;;;;;;11.55;6.30;;;10.50;99.90;;;;;;4997227;28;20042;-62
2023/05/17 00:59:55;;;;;;;19.00;7.95;;;10.50;99.90;;;;;;5000499;28;20107;-65
2023/05/17 01:02:22;;;;;;;22.65;7.40;;;10.50;99.90;;;;;;4986008;28;20807;-65
2023/05/17 01:04:50;;;;;;;16.13;6.60;;;10.40;99.90;;;;;;5002467;28;20647;-61
2023/05/17 01:07:17;;;;;;;12.77;6.68;;;10.40;99.90;;;;;;4999370;28;20099;-64
2023/05/17 01:09:46;;;;;;;18.85;5.57;;;10.40;99.90;;;;;;5002778;28;20045;-69
2023/05/17 01:12:44;;;;;;;16.70;6.63;;;10.40;99.90;;;;;;5001928;28;20119;-60
2023/05/17 01:15:27;;;;;;;12.32;5.97;;;10.30;99.90;;;;;;5000206;28;20046;-64
2023/05/17 01:18:20;;;;;;;17.40;6.60;;;10.30;99.90;;;;;;5000350;28;20503;-64
2023/05/17 01:20:49;;;;;;;21.60;6.78;;;10.30;99.90;;;;;;5002758;28;20053;-62
2023/05/17 01:23:27;;;;;;;13.90;7.05;;;10.20;99.90;;;;;;5000711;28;20049;-63
2023/05/17 01:26:26;;;;;;;20.25;5.60;;;10.20;99.90;;;;;;4998960;28;20053;-70
2023/05/17 01:28:55;;;;;;;19.23;6.90;;;10.20;99.90;;;;;;4993511;28;20046;-65
2023/05/17 01:31:23;;;;;;;12.32;4.78;;;10.10;99.90;;;;;;4997368;28;20088;-68
2023/05/17 01:33:50;;;;;;;14.35;4.95;;;10.10;99.90;;;;;;5003845;28;20112;-67
2023/05/17 01:36:17;;;;;;;17.83;5.43;;;10.10;99.90;;;;;;5003822;28;20136;-62
2023/05/17 01:38:44;;;;;;;16.33;5.25;;;10.00;99.90;;;;;;5002272;28;20515;-68
2023/05/17 01:41:25;;;;;;;13.02;4.43;;;10.00;99.90;;;;;;5002222;28;20507;-68
2023/05/17 01:44:26;;;;;;;20.65;5.10;;;9.90;99.90;;;;;;4999041;28;20053;-66
2023/05/17 01:47:05;;;;;;;15.25;5.18;;;9.90;99.90;;;;;;4997973;28;20415;-68
2023/05/17 01:49:37;;;;;;;20.90;6.55;;;9.90;99.90;;;;;;4998794;28;20057;-72
2023/05/17 01:52:27;;;;;;;12.00;5.07;;;9.80;99.90;;;;;;5001851;28;20462;-65
2023/05/17 01:55:05;;;;;;;31.42;7.13;;;9.70;99.90;;;;;;4984032;28;20661;-61
2023/05/17 01:57:35;;;;;;;19.65;5.63;;;9.70;99.90;;;;;;4984087;28;20105;-71
2023/05/17 02:00:09;;;;;;;13.93;5.18;;;9.60;99.90;;;;;;4990781;28;20058;-65
2023/05/17 02:02:44;;;;;;;22.73;9.23;;;9.60;99.90;;;;;;4958884;28;20051;-66
2023/05/17 02:05:12;;;;;;;18.23;7.00;;;9.50;99.90;;;;;;4980840;28;20154;-68
2023/05/17 02:07:39;;;;;;;25.13;6.30;;;9.50;99.90;;;;;;4984355;28;20050;-64
2023/05/17 02:10:06;;;;;;;17.45;6.18;;;9.50;99.90;;;;;;4986530;28;21215;-61
2023/05/17 02:12:35;;;;;;;17.65;5.07;;;9.50;99.90;;;;;;4984535;28;20061;-65
2023/05/17 02:15:02;;;;;;;13.05;5.22;;;9.40;99.90;;;;;;4987015;28;20050;-61
2023/05/17 02:17:29;;;;;;;18.77;7.00;;;9.40;99.90;;;;;;4984971;28;20062;-68
2023/05/17 02:19:56;;;;;;;16.40;5.32;;;9.30;99.90;;;;;;4981441;28;20058;-61
2023/05/17 02:22:23;;;;;;;15.98;6.28;;;9.30;99.90;;;;;;4985641;28;20100;-67
2023/05/17 02:24:50;;;;;;;12.35;5.10;;;9.20;99.90;;;;;;4984472;28;20038;-67
2023/05/17 02:27:17;;;;;;;14.02;6.18;;;9.20;99.90;;;;;;4983738;28;20097;-63
2023/05/17 02:29:44;;;;;;;17.45;5.43;;;9.20;99.90;;;;;;4979994;28;20082;-61
2023/05/17 02:32:11;;;;;;;27.40;6.10;;;9.10;99.90;;;;;;4985914;28;20108;-65
2023/05/17 02:34:38;;;;;;;15.80;4.60;;;9.10;99.90;;;;;;4982159;28;20062;-62
2023/05/17 02:37:05;;;;;;;15.82;5.38;;;9.10;99.90;;;;;;4984356;28;20148;-63
2023/05/17 02:39:32;;;;;;;20.23;6.53;;;9.00;99.90;;;;;;4985144;28;20058;-71
2023/05/17 02:41:59;;;;;;;22.42;6.13;;;9.00;99.90;;;;;;4978294;28;20065;-66
2023/05/17 02:44:26;;;;;;;18.00;6.28;;;8.90;99.90;;;;;;4987038;28;20050;-65
2023/05/17 02:46:53;;;;;;;19.02;7.05;;;8.90;99.90;;;;;;4986228;28;20054;-63
2023/05/17 02:49:20;;;;;;;14.95;6.20;;;8.90;99.90;;;;;;4986132;28;20058;-63
2023/05/17 02:51:47;;;;;;;26.08;8.05;;;8.90;99.90;;;;;;4983839;28;20082;-62
2023/05/17 02:54:13;;;;;;;17.70;5.95;;;8.80;99.90;;;;;;4986644;28;20058;-61
2023/05/17 02:56:40;;;;;;;17.80;6.53;;;8.80;99.90;;;;;;4987019;28;20476;-61
2023/05/17 02:59:08;;;;;;;27.55;9.18;;;8.80;99.90;;;;;;4985602;28;20063;-64
2023/05/17 03:01:36;;;;;;;18.92;6.50;;;8.80;99.90;;;;;;4984586;28;20137;-66
2023/05/17 03:04:03;;;;;;;17.40;7.40;;;8.80;99.90;;;;;;4982840;28;20050;-68
2023/05/17 03:06:31;;;;;;;14.85;6.40;;;8.80;99.90;;;;;;4987553;28;20073;-65
2023/05/17 03:08:57;;;;;;;17.13;7.40;;;8.80;99.90;;;;;;4980628;28;20073;-66
2023/05/17 03:11:25;;;;;;;32.05;6.70;;;8.80;99.90;;;;;;4980705;28;20065;-65
2023/05/17 03:13:54;;;;;;;20.70;6.85;;;8.80;99.90;;;;;;4976154;28;21164;-62
2023/05/17 03:16:25;;;;;;;14.98;6.15;;;8.80;99.90;;;;;;4986297;28;20133;-61
2023/05/17 03:18:52;;;;;;;16.33;5.70;;;8.80;99.90;;;;;;4985844;28;20136;-62
2023/05/17 03:21:19;;;;;;;21.77;6.53;;;8.80;99.90;;;;;;4984687;28;20056;-63
2023/05/17 03:23:47;;;;;;;17.52;6.60;;;8.80;99.90;;;;;;4980073;28;21508;-65
2023/05/17 03:26:15;;;;;;;14.80;5.85;;;8.80;99.90;;;;;;4980449;28;20057;-71
2023/05/17 03:28:47;;;;;;;17.77;6.20;;;8.90;99.90;;;;;;4985371;28;20128;-61
2023/05/17 03:31:16;;;;;;;20.27;5.65;;;8.90;99.90;;;;;;4984153;28;20070;-75
2023/05/17 03:33:44;;;;;;;18.17;5.32;;;8.80;99.90;;;;;;4980987;28;20054;-64
2023/05/17 03:36:12;;;;;;;12.18;4.63;;;8.90;99.90;;;;;;4985298;28;20055;-62
2023/05/17 03:38:39;;;;;;;19.63;5.63;;;8.90;99.90;;;;;;4986086;28;20072;-71
2023/05/17 03:41:06;;;;;;;13.60;4.93;;;8.90;99.90;;;;;;4977845;28;20054;-63
2023/05/17 03:43:33;;;;;;;20.25;6.00;;;9.00;99.90;;;;;;4980278;28;20138;-60
2023/05/17 03:46:00;;;;;;;16.95;5.68;;;9.00;99.90;;;;;;4973667;28;20054;-74
2023/05/17 03:48:28;;;;;;;14.52;5.18;;;9.00;99.90;;;;;;4984229;28;20125;-62
2023/05/17 03:50:55;;;;;;;18.17;6.38;;;9.00;99.90;;;;;;4986274;28;20077;-66
2023/05/17 03:53:22;;;;;;;15.73;5.65;;;9.00;99.90;;;;;;4984787;28;20062;-69
2023/05/17 03:55:49;;;;;;;16.20;6.43;;;9.00;99.90;;;;;;4982265;28;20159;-64
2023/05/17 03:58:17;;;;;;;22.10;5.97;;;9.00;99.90;;;;;;4983906;28;20463;-62
2023/05/17 04:00:44;;;;;;;18.17;7.25;;;9.00;99.90;;;;;;4985325;28;20054;-73
2023/05/17 04:03:14;;;;;;;17.63;5.90;;;9.00;99.90;;;;;;4983589;28;20050;-63
2023/05/17 04:05:45;;;;;;;13.38;6.47;;;9.00;99.90;;;;;;4980590;28;20165;-64
2023/05/17 04:08:12;;;;;;;19.05;7.82;;;9.00;99.90;;;;;;4983344;28;20050;-62
2023/05/17 04:10:41;;;;;;;17.30;6.57;;;9.10;99.90;;;;;;4982369;28;20546;-78
2023/05/17 04:13:08;;;;;;;14.57;6.28;;;9.00;99.90;;;;;;4984546;28;20053;-63
2023/05/17 04:15:36;;;;;;;16.40;5.45;;;9.10;99.90;;;;;;4983474;28;20436;-73
2023/05/17 04:18:05;;;;;;;11.18;5.80;;;9.10;99.90;;;;;;4996981;28;20548;-63
2023/05/17 04:20:32;;;;;;;15.35;6.35;;;9.20;99.90;;;;;;4985607;28;20097;-74
2023/05/17 04:22:59;;;;;;;9.40;5.05;;;9.20;99.90;;;;;;4982539;28;20054;-63
2023/05/17 04:25:28;;;;;;;13.75;5.53;;;9.20;99.90;;;;;;4972479;28;20389;-72
2023/05/17 04:27:56;;;;;;;11.65;5.97;;;9.30;99.90;;;;;;4978941;28;20054;-63
2023/05/17 04:30:23;;;;;;;18.73;4.97;;;9.30;99.90;;;;;;4979906;28;20050;-64
2023/05/17 04:32:50;;;;;;;13.70;5.05;;;9.30;99.90;;;;;;4980724;28;20069;-60
2023/05/17 04:35:18;;;;;;;18.83;4.70;;;9.40;99.90;;;;;;4977967;28;20523;-65
2023/05/17 04:37:48;;;;;;;17.85;7.20;;;9.50;99.90;;;;;;4982487;28;20039;-65
2023/05/17 04:40:20;;;;;;;11.20;5.57;;;9.50;99.90;;;;;;4984744;28;20564;-65
2023/05/17 04:42:47;;;;;;;13.27;6.07;;;9.60;99.90;;;;;;4981444;28;20065;-61
2023/05/17 04:45:16;;;;;;;8.68;4.85;;;9.60;99.90;;;;;;4984784;28;20567;-66
2023/05/17 04:47:43;;;;;;;13.60;5.28;;;9.60;99.90;;;;;;4984266;28;20054;-62
2023/05/17 04:50:11;;;;;;;14.38;4.57;;;9.50;99.90;;;;;;4982599;28;20062;-61
2023/05/17 04:52:38;;;;;;;10.73;4.82;;;9.60;99.90;;;;;;4983347;28;20074;-65
2023/05/17 04:55:06;;;;;;;14.85;6.20;;;9.60;99.90;;;;;;4982441;28;20078;-69
2023/05/17 04:57:34;;;;;;;13.82;5.18;;;9.60;99.90;;;;;;4980396;28;20046;-66
2023/05/17 05:00:09;;;;;;;16.88;6.10;;;9.60;99.90;;;;;;4979975;28;20054;-66
2023/05/17 05:02:38;;;;;;;13.07;5.18;;;9.60;99.90;;;;;;4981991;28;20132;-69
2023/05/17 05:05:08;;;;;;;13.57;4.20;;;9.60;99.90;;;;;;4978482;28;20054;-61
2023/05/17 05:07:38;;;;;;;13.77;4.22;;;9.60;99.90;;;;;;4976824;28;20085;-71
2023/05/17 05:10:07;;;;;;;10.88;4.40;;;9.70;99.90;;;;;;4978330;28;20086;-65
2023/05/17 05:12:33;;;;;;;16.38;5.38;;;9.70;99.90;;;;;;4976537;28;20038;-66
2023/05/17 05:15:00;;;;;;;10.90;5.35;;;9.70;99.90;;;;;;4980195;28;20137;-61
2023/05/17 05:17:29;;;;;;;15.13;5.38;;;9.80;99.90;;;;;;4978265;28;20073;-72
2023/05/17 05:19:56;;;;;;;17.38;6.00;;;9.80;99.90;;;;;;4977643;28;20137;-64
2023/05/17 05:22:25;;;;;;;13.20;7.60;;;9.80;99.90;;;;;;4975646;28;20061;-73
2023/05/17 05:24:54;;;;;;;18.45;7.00;;;9.80;99.90;;;;;;4981130;28;20145;-67
2023/05/17 05:27:21;;;;;;;17.73;6.28;;;9.90;99.90;;;;;;4983725;28;20090;-61
2023/05/17 05:29:49;;;;;;;11.02;3.65;;;9.80;99.90;;;;;;4979851;28;20047;-69
2023/05/17 05:32:16;;;;;;;13.90;5.78;;;9.80;99.90;;;;;;4981581;28;20192;-66
2023/05/17 05:34:45;;;;;;;13.65;5.20;;;9.90;99.90;;;;;;4982100;28;20046;-61
2023/05/17 05:37:12;;;;;;;12.00;5.80;;;9.90;99.90;;;;;;4983707;28;20054;-71
2023/05/17 05:39:41;;;;;;;14.88;4.65;;;10.10;99.90;;;;;;4997420;28;20062;-62
2023/05/17 05:42:08;;;;;;;7.45;3.83;;;10.20;99.90;;;;;;4981750;28;20057;-61
2023/05/17 05:44:35;;;;;;;12.48;5.50;;;10.20;99.90;;;;;;4984774;28;20065;-63
2023/05/17 05:47:02;;;;;;;8.65;4.18;;;10.20;99.90;;;;;;4980694;28;20054;-66
2023/05/17 05:49:29;;;;;;;14.73;5.22;;;10.30;99.90;;;;;;4982329;28;20058;-71
2023/05/17 05:51:56;;;;;;;15.02;4.43;;;10.30;99.90;;;;;;4985913;28;20515;-70
2023/05/17 05:54:26;;;;;;;16.65;5.13;;;10.40;99.90;;;;;;4977039;28;20145;-69
2023/05/17 05:56:54;;;;;;;13.90;4.55;;;10.60;99.90;;;;;;4982483;28;20053;-63
2023/05/17 05:59:21;;;;;;;13.43;4.82;;;10.70;99.90;;;;;;4983236;28;20078;-64
2023/05/17 06:01:48;;;;;;;9.63;5.20;;;10.80;99.90;;;;;;4982461;28;20065;-63
2023/05/17 06:04:14;;;;;;;12.02;4.68;;;10.80;99.90;;;;;;4984237;28;20046;-61
2023/05/17 06:06:41;;;;;;;12.13;4.63;;;10.80;99.90;;;;;;4985365;28;20156;-63
2023/05/17 06:09:11;;;;;;;14.40;6.47;;;10.80;99.90;;;;;;4985035;28;20063;-64
2023/05/17 06:11:38;;;;;;;15.48;4.60;;;10.90;99.90;;;;;;4983079;28;20108;-69
2023/05/17 06:14:06;;;;;;;14.70;4.30;;;11.00;99.90;;;;;;4987935;28;20176;-62
2023/05/17 06:16:33;;;;;;;19.05;5.80;;;11.00;99.90;;;;;;4984176;28;20084;-68
2023/05/17 06:19:02;;;;;;;15.60;4.90;;;11.00;99.90;;;;;;4983888;28;20082;-72
2023/05/17 06:21:29;;;;;;;13.93;5.07;;;11.10;99.90;;;;;;4984168;28;20058;-64
2023/05/17 06:23:56;;;;;;;15.55;6.13;;;11.10;99.90;;;;;;4985711;28;20727;-62
2023/05/17 06:26:23;;;;;;;9.07;4.80;;;11.10;99.90;;;;;;4981046;28;20102;-63
2023/05/17 06:28:50;;;;;;;14.23;6.70;;;11.10;99.90;;;;;;4987803;28;20057;-66
2023/05/17 06:31:17;;;;;;;8.73;4.10;;;11.10;99.90;;;;;;4984064;28;20484;-64
2023/05/17 06:33:46;;;;;;;14.10;4.72;;;11.00;99.90;;;;;;4983207;28;20074;-65
2023/05/17 06:36:13;;;;;;;9.60;4.10;;;11.00;99.90;;;;;;4983318;28;20112;-74
2023/05/17 06:38:41;;;;;;;10.55;4.85;;;11.10;99.90;;;;;;4986955;28;20054;-68
2023/05/17 06:41:07;;;;;;;16.98;6.53;;;11.10;99.90;;;;;;4984268;28;20703;-62
2023/05/17 06:43:34;;;;;;;8.18;3.92;;;11.10;99.90;;;;;;4983846;28;20129;-63
2023/05/17 06:46:03;;;;;;;8.73;4.68;;;11.10;99.90;;;;;;4987293;28;20057;-62
2023/05/17 06:48:30;;;;;;;7.78;3.63;;;11.20;99.90;;;;;;4985126;28;20100;-67
2023/05/17 06:50:57;;;;;;;6.13;3.63;;;11.20;99.90;;;;;;4983982;28;20054;-69
2023/05/17 06:53:26;;;;;;;13.95;6.70;;;11.30;99.90;;;;;;4984418;28;20152;-63
2023/05/17 06:55:52;;;;;;;17.98;5.80;;;11.40;99.90;;;;;;4981340;28;20053;-64
2023/05/17 06:58:19;;;;;;;11.25;5.38;;;11.40;99.90;;;;;;4984507;28;20062;-69
2023/05/17 07:00:47;;;;;;;14.68;4.53;;;11.40;99.90;;;;;;5000763;28;20716;-62
2023/05/17 07:03:13;;;;;;;10.75;3.97;;;11.40;99.90;;;;;;5003828;28;20156;-65
2023/05/17 07:05:41;;;;;;;10.45;4.20;;;11.50;99.90;;;;;;5003863;28;23922;-76
2023/05/17 07:08:07;;;;;;;9.02;4.22;;;11.50;99.90;;;;;;5002416;28;20104;-64
2023/05/17 07:10:34;;;;;;;15.20;4.65;;;11.50;99.90;;;;;;5000090;28;20054;-64
2023/05/17 07:13:01;;;;;;;11.23;4.65;;;11.50;99.90;;;;;;5004920;28;20053;-75
2023/05/17 07:15:28;;;;;;;16.25;5.50;;;11.50;99.90;;;;;;5003351;28;20886;-64
2023/05/17 07:17:56;;;;;;;16.38;4.65;;;11.60;99.90;;;;;;5005304;28;20522;-65
2023/05/17 07:20:23;;;;;;;8.13;4.45;;;11.70;99.90;;;;;;5004666;28;20054;-77
2023/05/17 07:22:50;;;;;;;9.35;4.57;;;11.80;99.90;;;;;;5003047;28;20050;-69
2023/05/17 07:25:17;;;;;;;7.90;4.13;;;11.80;99.90;;;;;;5004433;28;20052;-68
2023/05/17 07:27:44;;;;;;;7.80;4.78;;;12.00;99.90;;;;;;5003519;28;20157;-74
2023/05/17 07:30:11;;;;;;;10.68;3.90;;;12.00;99.90;;;;;;5004957;28;20103;-65
2023/05/17 07:32:38;;;;;;;13.73;4.90;;;12.00;99.90;;;;;;5003528;28;20077;-70
2023/05/17 07:35:05;;;;;;;12.65;4.28;;;12.00;99.90;;;;;;5005569;28;20147;-62
2023/05/17 07:37:33;;;;;;;6.57;4.95;;;12.00;99.90;;;;;;5003283;28;20389;-66
2023/05/17 07:40:00;;;;;;;17.73;4.13;;;11.90;99.90;;;;;;5001304;28;20060;-63
2023/05/17 07:42:27;;;;;;;6.05;2.88;;;12.00;99.90;;;;;;5005628;28;20112;-72
2023/05/17 07:44:54;;;;;;;12.75;3.53;;;12.00;99.90;;;;;;5004191;28;20053;-63
2023/05/17 07:47:21;;;;;;;8.52;3.53;;;12.00;99.90;;;;;;5003572;28;20138;-62
2023/05/17 07:49:48;;;;;;;14.27;4.13;;;11.90;99.90;;;;;;5005205;28;20049;-67
2023/05/17 07:52:15;;;;;;;5.63;3.20;;;11.80;99.90;;;;;;4994053;28;20679;-64
2023/05/17 07:54:42;;;;;;;10.40;4.40;;;11.80;99.90;;;;;;5003463;28;20100;-63
2023/05/17 07:57:09;;;;;;;11.65;3.35;;;12.00;99.90;;;;;;5004127;28;20052;-71
2023/05/17 07:59:36;;;;;;;11.70;3.95;;;12.00;99.90;;;;;;5003780;28;20053;-62
2023/05/17 08:02:03;;;;;;;7.43;3.75;;;12.10;99.90;;;;;;5006905;28;20057;-62
2023/05/17 08:04:30;;;;;;;9.70;3.45;;;12.20;99.90;;;;;;5004496;28;20723;-75
2023/05/17 08:06:57;;;;;;;8.27;5.00;;;12.30;99.90;;;;;;5004357;28;20046;-62
2023/05/17 08:09:24;;;;;;;12.32;2.92;;;12.30;99.90;;;;;;5002950;28;20058;-62
2023/05/17 08:11:51;;;;;;;9.05;3.10;;;12.10;99.90;;;;;;5001947;28;20490;-69
2023/05/17 08:14:20;;;;;;;7.38;2.67;;;12.00;99.90;;;;;;5006117;28;20160;-61
2023/05/17 08:16:47;;;;;;;10.90;3.63;;;12.00;99.90;;;;;;5006451;28;20084;-62
2023/05/17 08:19:15;;;;;;;6.85;2.38;;;12.00;99.90;;;;;;5005952;28;20092;-64
2023/05/17 08:21:42;;;;;;;9.20;3.30;;;12.00;99.90;;;;;;5001193;28;20125;-66
2023/05/17 08:24:10;;;;;;;8.02;2.85;;;12.00;99.90;;;;;;5004668;28;20104;-64
2023/05/17 08:26:37;;;;;;;7.95;2.28;;;12.10;99.90;;;;;;5000854;28;20104;-65
2023/05/17 08:29:04;;;;;;;8.13;2.97;;;12.10;99.90;;;;;;5006113;28;20056;-61
2023/05/17 08:31:31;;;;;;;14.02;3.83;;;12.20;99.90;;;;;;4999618;28;20100;-72
2023/05/17 08:33:58;;;;;;;4.82;3.42;;;12.10;99.90;;;;;;5005496;28;20738;-66
2023/05/17 08:36:29;;;;;;;7.45;1.73;;;12.20;99.90;;;;;;5005993;28;20080;-64
2023/05/17 08:38:55;;;;;;;8.23;3.38;;;12.30;99.90;;;;;;5006931;28;20061;-66
2023/05/17 08:41:23;;;;;;;2.88;1.73;;;12.40;99.90;;;;;;5001554;28;20133;-75
2023/05/17 08:43:51;;;;;;;5.68;1.52;;;12.40;99.90;;;;;;5000574;28;20096;-66
2023/05/17 08:46:20;;;;;;;11.40;2.10;;;12.50;99.90;;;;;;5005201;28;20053;-66
2023/05/17 08:48:52;;;;;;;4.85;2.85;;;12.40;99.90;;;;;;5004768;28;20049;-63
2023/05/17 08:51:20;;;;;;;7.07;1.77;;;12.50;99.90;;;;;;5002062;28;20050;-68
2023/05/17 08:53:49;;;;;;;6.03;2.67;;;12.50;99.90;;;;;;5004030;28;20049;-68
2023/05/17 08:56:19;;;;;;;9.82;3.30;;;12.50;99.90;;;;;;5002063;28;20454;-66
2023/05/17 08:58:50;;;;;;;6.93;1.50;;;12.50;99.90;;;;;;5002078;28;20053;-65
2023/05/17 09:01:23;;;;;;;3.50;1.88;;;12.50;99.90;;;;;;5001484;28;20888;-76
2023/05/17 09:03:53;;;;;;;8.35;2.78;;;12.40;99.90;;;;;;5003872;28;20056;-64
2023/05/17 09:06:22;;;;;;;6.57;1.52;;;12.40;99.90;;;;;;5002437;28;20490;-70
2023/05/17 09:08:51;;;;;;;4.05;1.08;;;12.60;99.90;;;;;;4999497;28;20215;-67
2023/05/17 09:11:26;;;;;;;4.67;1.97;;;12.50;99.90;;;;;;5002334;28;20457;-63
2023/05/17 09:13:57;;;;;;;4.50;1.50;;;12.50;99.90;;;;;;5004542;28;20319;-63
2023/05/17 09:16:25;;;;;;;3.10;1.20;;;12.40;99.90;;;;;;5005843;28;20042;-64
2023/05/17 09:18:56;;;;;;;9.38;1.70;;;12.40;99.90;;;;;;5005444;28;20042;-62
2023/05/17 09:21:25;;;;;;;4.75;1.40;;;12.50;99.90;;;;;;5001992;28;20112;-58
2023/05/17 09:23:53;;;;;;;3.67;1.30;;;12.50;99.90;;;;;;5009904;28;20064;-61
2023/05/17 09:26:41;;;;;;;4.75;1.65;;;12.50;99.90;;;;;;5004469;28;20062;-71
2023/05/17 09:29:10;;;;;;;2.08;0.80;;;12.60;99.90;;;;;;5005032;28;20053;-68
2023/05/17 09:31:38;;;;;;;4.78;0.65;;;12.80;99.90;;;;;;5001575;28;20132;-65
2023/05/17 09:34:06;;;;;;;6.63;1.45;;;12.90;99.90;;;;;;5005913;28;20054;-63
2023/05/17 09:36:41;;;;;;;2.33;0.98;;;12.70;99.90;;;;;;5005909;28;20426;-61
2023/05/17 09:39:10;;;;;;;6.47;1.00;;;12.80;99.90;;;;;;5005704;28;20088;-66
2023/05/17 09:41:46;;;;;;;19.98;1.52;;;12.80;99.90;;;;;;5001541;28;20111;-59
2023/05/17 09:44:14;;;;;;;4.10;1.00;;;12.70;99.90;;;;;;5006515;28;20045;-60
2023/05/17 09:46:44;;;;;;;2.60;1.35;;;12.80;99.90;;;;;;5002514;28;20141;-65
2023/05/17 09:49:12;;;;;;;1.63;0.70;;;12.90;99.90;;;;;;5006111;28;20080;-64
2023/05/17 09:51:41;;;;;;;9.50;1.13;;;12.90;99.90;;;;;;5004751;28;20329;-64
2023/05/17 09:54:09;;;;;;;1.77;0.73;;;13.00;99.90;;;;;;5005624;28;20057;-65
2023/05/17 09:56:36;;;;;;;4.00;0.77;;;13.00;99.90;;;;;;5005817;28;20120;-64
2023/05/17 09:59:13;;;;;;;4.00;1.65;;;13.10;99.90;;;;;;5006168;28;20042;-62
2023/05/17 10:01:43;;;;;;;3.83;0.85;;;13.10;99.90;;;;;;5002868;28;20073;-64
2023/05/17 10:04:12;;;;;;;2.97;0.70;;;13.00;99.90;;;;;;5004019;28;20061;-68
2023/05/17 10:06:41;;;;;;;4.00;1.05;;;13.00;99.90;;;;;;5005461;28;20060;-63
2023/05/17 10:09:15;;;;;;;2.58;1.00;;;13.00;99.90;;;;;;5006921;28;20062;-60
2023/05/17 10:11:45;;;;;;;3.25;1.27;;;13.00;99.90;;;;;;5002319;28;20081;-61
2023/05/17 10:14:17;;;;;;;2.00;0.70;;;13.00;99.90;;;;;;5007794;28;20124;-62
2023/05/17 10:16:45;;;;;;;1.45;0.63;;;13.00;99.90;;;;;;5006993;28;20053;-62
2023/05/17 10:19:13;;;;;;;2.53;1.20;;;13.20;99.90;;;;;;5005983;28;20049;-66
2023/05/17 10:21:42;;;;;;;2.90;0.45;;;13.30;99.90;;;;;;5005272;28;20045;-62
2023/05/17 10:24:10;;;;;;;3.90;1.05;;;13.40;99.90;;;;;;5008270;28;20069;-60
2023/05/17 10:26:37;;;;;;;2.28;0.98;;;13.40;99.30;;;;;;5006172;28;20046;-62
2023/05/17 10:29:05;;;;;;;6.63;1.25;;;13.40;99.30;;;;;;5008425;28;20111;-60
2023/05/17 10:31:35;;;;;;;5.38;1.75;;;13.40;98.60;;;;;;5004392;28;20140;-72
2023/05/17 10:34:05;;;;;;;4.03;0.57;;;13.40;98.90;;;;;;5001813;28;20144;-71
2023/05/17 10:36:32;;;;;;;6.75;0.85;;;13.60;98.90;;;;;;5004207;28;21405;-63
2023/05/17 10:39:00;;;;;;;2.17;0.93;;;13.60;98.20;;;;;;5005681;28;20053;-67
2023/05/17 10:41:33;;;;;;;3.75;1.85;;;13.70;97.60;;;;;;5001606;28;20053;-61
2023/05/17 10:44:03;;;;;;;2.50;0.73;;;13.60;97.90;;;;;;5005789;28;20085;-63
2023/05/17 10:46:30;;;;;;;6.07;1.20;;;13.50;97.70;;;;;;5000777;28;20061;-65
2023/05/17 10:48:59;;;;;;;2.30;0.77;;;13.60;97.90;;;;;;5005571;28;20149;-61
2023/05/17 10:51:33;;;;;;;5.20;1.27;;;13.60;97.50;;;;;;5000518;28;20136;-64
2023/05/17 10:54:03;;;;;;;3.53;1.48;;;13.40;97.40;;;;;;5005246;28;20046;-69
2023/05/17 10:56:31;;;;;;;5.25;1.90;;;13.50;97.90;;;;;;5002809;28;20315;-69
2023/05/17 10:59:25;;;;;;;2.30;0.88;;;13.50;98.60;;;;;;5004053;28;20149;-63
2023/05/17 11:02:00;;;;;;;2.28;0.68;;;13.70;97.90;;;;;;5002168;28;20045;-63
2023/05/17 11:04:36;;;;;;;2.55;0.93;;;13.80;96.90;;;;;;5004660;28;20625;-61
2023/05/17 11:07:16;;;;;;;3.28;0.85;;;13.80;96.90;;;;;;4999512;28;20046;-64
2023/05/17 11:09:45;;;;;;;2.60;1.10;;;13.70;96.60;;;;;;4985230;28;20053;-66
2023/05/17 11:12:13;;;;;;;1.45;0.75;;;13.70;96.20;;;;;;5004349;28;20046;-67
2023/05/17 11:14:53;;;;;;;4.32;1.13;;;13.80;96.30;;;;;;5005809;28;20050;-64
2023/05/17 11:17:24;;;;;;;4.32;1.40;;;13.80;95.80;;;;;;5004094;28;20381;-66
2023/05/17 11:19:52;;;;;;;4.20;1.08;;;14.00;96.00;;;;;;4999790;28;20663;-65
2023/05/17 11:22:25;;;;;;;2.58;0.60;;;14.10;95.40;;;;;;4984162;28;20756;-64
2023/05/17 11:24:56;;;;;;;6.00;1.88;;;14.20;95.60;;;;;;5001183;28;20095;-69
2023/05/17 11:27:26;;;;;;;;;;;14.30;94.40;;;;;;5003065;28;20058;-62
2023/05/17 11:29:54;;;;;;;4.95;0.80;;;14.30;95.20;;;;;;5002729;28;20386;-69
2023/05/17 11:32:28;;;;;;;1.80;0.70;;;14.30;95.40;;;;;;5004954;28;20057;-62
2023/05/17 11:34:58;;;;;;;4.10;1.20;;;14.40;95.00;;;;;;5001836;28;20117;-68
2023/05/17 11:37:26;;;;;;;3.83;1.83;;;14.70;94.90;;;;;;4995293;28;21212;-61
2023/05/17 11:40:07;;;;;;;2.17;0.90;;;14.90;94.30;;;;;;5003641;28;20132;-64
2023/05/17 11:42:36;;;;;;;1.48;0.70;;;14.90;93.50;;;;;;5003254;28;20164;-65
2023/05/17 11:45:03;;;;;;;2.42;0.80;;;14.60;93.90;;;;;;5004085;28;20061;-65
2023/05/17 11:47:31;;;;;;;8.15;2.05;;;14.50;93.10;;;;;;5002501;28;20104;-71
2023/05/17 11:50:02;;;;;;;6.57;1.73;;;14.70;93.90;;;;;;5001764;28;20049;-64
2023/05/17 11:52:31;;;;;;;3.50;1.30;;;14.80;93.40;;;;;;5004235;28;20107;-73
2023/05/17 11:54:59;;;;;;;4.93;1.80;;;14.60;92.90;;;;;;4999552;28;20581;-69
2023/05/17 11:57:30;;;;;;;7.60;0.98;;;14.50;93.10;;;;;;5000972;28;20167;-64
2023/05/17 12:00:04;;;;;;;5.25;1.15;;;14.40;93.20;;;;;;5003191;28;20050;-64
2023/05/17 12:02:40;;;;;;;4.90;1.15;;;14.30;94.00;;;;;;5003679;28;20058;-62
2023/05/17 12:05:08;;;;;;;4.40;0.93;;;14.20;93.70;;;;;;5003279;28;20572;-65
2023/05/17 12:07:36;;;;;;;2.50;0.95;;;14.30;94.90;;;;;;4999329;28;20137;-68
2023/05/17 12:10:04;;;;;;;4.88;0.90;;;14.00;95.00;;;;;;5000765;28;20482;-68
2023/05/17 12:12:31;;;;;;;20.83;2.08;;;13.80;96.30;;;;;;4982709;28;20062;-62
2023/05/17 12:14:58;;;;;;;2.58;1.20;;;13.60;97.40;;;;;;5002886;28;20065;-70
2023/05/17 12:17:34;;;;;;;2.78;1.98;;;13.60;98.30;;;;;;5001127;28;20131;-69
2023/05/17 12:20:09;;;;;;;3.38;0.70;;;13.40;99.10;;;;;;5001838;28;20562;-75
2023/05/17 12:22:55;;;;;;;4.82;1.10;;;13.20;99.40;;;;;;4994974;28;20046;-71
2023/05/17 12:25:28;;;;;;;6.13;0.70;;;12.90;99.90;;;;;;4997952;28;20416;-64
2023/05/17 12:28:14;;;;;;;2.47;1.13;;;12.70;99.90;;;;;;5002263;28;20100;-65
2023/05/17 12:30:42;;;;;;;2.72;0.68;;;12.50;99.90;;;;;;5000006;28;20057;-65
2023/05/17 12:33:09;;;;;;;3.20;0.70;;;12.40;99.90;;;;;;5002813;28;20054;-63
2023/05/17 12:35:37;;;;;;;5.15;0.88;;;12.50;99.90;;;;;;5001194;28;20056;-62
2023/05/17 12:38:03;;;;;;;1.55;0.70;;;13.00;99.90;;;;;;5002207;28;20046;-61
2023/05/17 12:40:30;;;;;;;1.80;0.77;;;13.20;99.90;;;;;;5001788;28;20058;-70
2023/05/17 12:43:04;;;;;;;3.38;0.80;;;13.40;99.90;;;;;;5001454;28;20050;-60
2023/05/17 12:45:31;;;;;;;4.30;0.70;;;13.30;99.90;;;;;;5000392;28;20175;-68
2023/05/17 12:47:59;;;;;;;3.08;0.88;;;13.30;99.90;;;;;;5001813;28;20058;-68
2023/05/17 12:50:29;;;;;;;7.43;1.20;;;13.20;99.90;;;;;;5003374;28;20046;-63
2023/05/17 12:52:57;;;;;;;6.80;1.05;;;12.90;99.90;;;;;;5000222;28;20232;-64